Time;durP1;ratioP1;P1;durP2;ratioP2;P2;SDS_P1;SDS_P2;PMS_P1;PMS_P2;Temp;Humidity;BMP_temperature;BMP_pressure;BME280_temperature;BME280_humidity;BME280_pressure;Samples;Min_cycle;Max_cycle;Signal;HPM_P1;HPM_P2
2023/01/27 00:02:17;;;;;;;;;7.25;4.25;;;;;6.09;74.42;102067.25;5078161;28;45350;-59
2023/01/27 00:04:42;;;;;;;;;5.00;5.00;;;;;6.07;74.13;102050.59;5077386;28;45428;-55
2023/01/27 00:07:07;;;;;;;;;4.50;4.00;;;;;6.08;74.50;102049.69;5078519;28;45547;-61
2023/01/27 00:09:34;;;;;;;;;5.50;4.00;;;;;6.12;73.92;102064.44;5078282;28;45418;-59
2023/01/27 00:14:43;;;;;;;;;5.25;4.75;;;;;6.12;73.33;102059.16;5078271;28;45483;-60
2023/01/27 00:17:08;;;;;;;;;9.00;4.00;;;;;6.12;73.39;102053.88;5076884;28;45394;-53
2023/01/27 00:19:34;;;;;;;;;12.50;7.50;;;;;6.14;73.41;102060.75;5078027;28;47055;-56
2023/01/27 00:24:44;;;;;;;;;10.00;5.75;;;;;6.14;72.71;102052.81;5077976;28;45321;-62
2023/01/27 00:27:09;;;;;;;;;7.50;3.50;;;;;6.07;72.77;102051.50;5078313;28;45486;-53
2023/01/27 00:29:35;;;;;;;;;5.25;5.00;;;;;6.13;72.93;102056.41;5077583;28;46273;-62
2023/01/27 00:34:46;;;;;;;;;6.50;6.50;;;;;6.15;72.63;102058.97;5077868;28;45237;-60
2023/01/27 00:37:11;;;;;;;;;9.00;4.25;;;;;6.15;72.87;102069.53;5077572;28;45404;-57
2023/01/27 00:39:37;;;;;;;;;9.50;4.75;;;;;6.13;72.78;102051.13;5077629;28;45288;-64
2023/01/27 00:42:03;;;;;;;;;7.25;4.75;;;;;6.12;72.45;102059.16;5077807;28;45402;-51
2023/01/27 00:44:28;;;;;;;;;3.50;3.50;;;;;6.15;73.00;102062.47;5077857;28;45498;-56
2023/01/27 00:46:54;;;;;;;;;5.50;5.50;;;;;6.16;73.44;102058.03;5078005;28;45395;-62
2023/01/27 00:49:19;;;;;;;;;4.00;2.50;;;;;6.16;73.19;102058.03;5077208;28;46290;-59
2023/01/27 00:51:44;;;;;;;;;5.00;2.00;;;;;6.17;72.67;102057.09;5077550;28;45370;-53
2023/01/27 00:54:10;;;;;;;;;11.50;4.00;;;;;6.16;73.42;102050.13;5077521;28;45355;-63
2023/01/27 00:56:36;;;;;;;;;4.00;2.00;;;;;6.16;72.83;102050.13;5077768;28;45470;-64
2023/01/27 00:59:01;;;;;;;;;5.00;4.00;;;;;6.15;72.88;102046.63;5077471;28;45420;-60
2023/01/27 01:01:27;;;;;;;;;5.00;2.00;;;;;6.16;73.33;102050.13;5077373;28;45400;-50
2023/01/27 01:03:52;;;;;;;;;5.75;4.25;;;;;6.13;73.27;102037.91;5077442;28;45376;-62
2023/01/27 01:06:18;;;;;;;;;2.00;2.00;;;;;6.17;73.57;102051.81;5077706;28;45366;-49
2023/01/27 01:08:44;;;;;;;;;5.00;2.00;;;;;6.17;73.31;102051.81;5077128;28;45289;-58
2023/01/27 01:11:12;;;;;;;;;4.00;4.00;;;;;6.15;73.11;102043.09;5077188;28;45274;-54
2023/01/27 01:13:38;;;;;;;;;4.50;2.00;;;;;6.14;73.04;102041.41;5077485;28;45409;-51
2023/01/27 01:16:10;;;;;;;;;3.50;1.00;;;;;6.14;72.93;102033.47;5077325;28;45396;-43
2023/01/27 01:18:36;;;;;;;;;4.75;2.00;;;;;6.14;72.75;102041.41;5077262;28;46148;-64
2023/01/27 01:21:02;;;;;;;;;3.50;1.00;;;;;6.17;73.18;102033.31;5077375;28;45315;-54
2023/01/27 01:23:28;;;;;;;;;5.00;2.50;;;;;6.14;72.77;102041.41;5076839;28;45532;-63
2023/01/27 01:25:55;;;;;;;;;7.50;2.00;;;;;6.15;73.15;102038.69;5077356;28;45344;-48
2023/01/27 01:28:21;;;;;;;;;4.75;3.50;;;;;6.17;73.01;102041.25;5076816;28;46266;-63
2023/01/27 01:30:46;;;;;;;;;1.50;1.50;;;;;6.17;72.92;102039.44;5058731;28;45830;-58
2023/01/27 01:33:12;;;;;;;;;4.00;3.50;;;;;6.18;72.50;102037.66;5076919;28;45398;-61
2023/01/27 01:35:38;;;;;;;;;4.00;2.00;;;;;6.17;72.91;102036.81;5077197;28;45302;-43
2023/01/27 01:38:04;;;;;;;;;5.00;2.00;;;;;6.17;73.36;102046.53;5076725;28;45391;-60
2023/01/27 01:40:29;;;;;;;;;3.00;3.00;;;;;6.17;73.09;102033.31;5076884;28;45506;-64
2023/01/27 01:42:57;;;;;;;;;1.25;1.25;;;;;6.07;73.54;102014.50;5077100;28;45577;-62
2023/01/27 01:45:35;;;;;;;;;7.00;4.50;;;;;6.16;73.42;102029.81;5077108;28;45284;-55
2023/01/27 01:48:15;;;;;;;;;7.50;2.00;;;;;6.17;73.34;102023.59;5076441;28;45799;-63
2023/01/27 01:50:46;;;;;;;;;7.00;5.25;;;;;6.14;73.21;102021.13;5076764;28;45444;-65
2023/01/27 01:53:11;;;;;;;;;3.75;2.00;;;;;6.14;73.15;102026.41;5076753;28;45353;-47
2023/01/27 01:55:39;;;;;;;;;4.00;4.00;;;;;6.08;73.79;102013.56;5058405;28;45518;-49
2023/01/27 01:58:07;;;;;;;;;6.50;3.75;;;;;6.16;73.33;102021.91;5076466;28;45399;-62
2023/01/27 02:00:33;;;;;;;;;4.00;2.00;;;;;6.15;72.39;102025.50;5075715;28;45345;-60
2023/01/27 02:03:00;;;;;;;;;10.50;4.75;;;;;6.13;72.71;102016.78;5076577;28;45540;-62
2023/01/27 02:05:31;;;;;;;;;4.75;4.50;;;;;6.16;72.62;102021.91;5076733;28;45501;-63
2023/01/27 02:08:20;;;;;;;;;8.00;3.50;;;;;6.11;72.84;102015.16;5076393;28;46392;-54
2023/01/27 02:10:45;;;;;;;;;1.00;1.00;;;;;6.15;72.89;102017.56;5076319;28;45405;-64
2023/01/27 02:13:11;;;;;;;;;4.00;1.75;;;;;6.17;72.74;102015.66;5076489;28;45405;-62
2023/01/27 02:15:37;;;;;;;;;8.75;5.00;;;;;6.16;72.64;102007.84;5076644;28;45403;-46
2023/01/27 02:18:04;;;;;;;;;5.00;2.00;;;;;6.17;72.64;102009.53;5076431;28;45345;-44
2023/01/27 02:20:42;;;;;;;;;2.00;1.00;;;;;6.09;72.83;101998.56;5076259;28;45289;-61
2023/01/27 02:23:32;;;;;;;;;4.00;4.00;;;;;6.15;72.62;102006.13;5076261;28;45443;-60
2023/01/27 02:26:12;;;;;;;;;6.50;2.00;;;;;6.14;72.58;102007.06;5076261;28;45266;-48
2023/01/27 02:28:37;;;;;;;;;2.00;2.00;;;;;6.11;72.24;101999.31;5076008;28;45414;-58
2023/01/27 02:31:03;;;;;;;;;6.50;2.00;;;;;6.14;72.36;101997.34;5076008;28;45377;-51
2023/01/27 02:33:29;;;;;;;;;2.00;2.00;;;;;6.14;72.28;102002.63;5076102;28;45355;-51
2023/01/27 02:36:12;;;;;;;;;4.00;1.75;;;;;6.12;72.42;102003.66;5076446;28;45390;-43
2023/01/27 02:38:48;;;;;;;;;6.00;3.50;;;;;6.12;72.31;102001.88;5075681;28;45496;-58
2023/01/27 02:41:20;;;;;;;;;4.00;2.00;;;;;6.12;71.92;102001.03;5075885;28;45400;-60
2023/01/27 02:43:47;;;;;;;;;3.50;3.00;;;;;6.13;72.04;102000.94;5075295;28;45311;-46
2023/01/27 02:46:12;;;;;;;;;8.00;0.25;;;;;6.09;71.83;101995.91;5076386;28;45417;-63
2023/01/27 02:48:38;;;;;;;;;5.00;4.00;;;;;6.12;72.05;101999.22;5075828;28;46193;-46
2023/01/27 02:51:04;;;;;;;;;4.75;3.50;;;;;6.10;71.85;101995.81;5076237;28;45403;-43
2023/01/27 02:53:29;;;;;;;;;5.00;2.00;;;;;6.12;71.16;102003.66;5076215;28;45413;-50
2023/01/27 02:55:54;;;;;;;;;5.00;5.00;;;;;6.13;71.54;102000.94;5076053;28;45422;-50
2023/01/27 02:58:20;;;;;;;;;5.50;3.50;;;;;6.13;71.80;101998.28;5075256;28;57050;-64
2023/01/27 03:00:45;;;;;;;;;5.50;1.75;;;;;6.13;71.65;102000.94;5075880;28;45387;-64
2023/01/27 03:03:11;;;;;;;;;5.25;4.25;;;;;6.13;71.50;102000.94;5076367;28;45322;-64
2023/01/27 03:05:36;;;;;;;;;9.75;4.00;;;;;5.99;71.17;101977.94;5076261;28;45433;-46
2023/01/27 03:08:01;;;;;;;;;1.75;1.00;;;;;6.14;71.41;101999.97;5075949;28;45430;-62
2023/01/27 03:10:27;;;;;;;;;1.75;1.75;;;;;6.14;70.91;101994.69;5075623;28;45392;-43
2023/01/27 03:12:52;;;;;;;;;2.50;1.75;;;;;6.11;70.65;101981.69;5078317;28;45319;-58
2023/01/27 03:18:12;;;;;;;;;6.75;1.50;;;;;6.10;70.54;101987.03;5079179;28;45414;-55
2023/01/27 03:20:48;;;;;;;;;2.00;2.00;;;;;6.10;70.84;101985.25;5079003;28;45352;-56
2023/01/27 03:23:16;;;;;;;;;3.00;2.00;;;;;6.11;70.96;101992.25;5079036;28;45458;-62
2023/01/27 03:25:43;;;;;;;;;3.00;3.00;;;;;6.10;70.71;101993.16;5078929;28;45474;-43
2023/01/27 03:28:09;;;;;;;;;1.75;1.75;;;;;6.11;70.69;101986.97;5078761;28;46290;-61
2023/01/27 03:30:35;;;;;;;;;7.50;4.25;;;;;6.11;70.65;101996.66;5078428;28;45514;-58
2023/01/27 03:33:02;;;;;;;;;5.50;5.50;;;;;6.11;70.25;101997.53;5079378;28;45383;-43
2023/01/27 03:35:33;;;;;;;;;8.00;4.25;;;;;6.12;70.45;101996.59;5079104;28;45506;-51
2023/01/27 03:46:18;;;;;;;;;5.00;2.00;;;;;6.09;70.64;101988.84;5078937;28;45222;-59
2023/01/27 03:48:48;;;;;;;;;4.00;4.00;;;;;6.07;70.10;101996.00;5078561;28;45397;-48
2023/01/27 03:51:14;;;;;;;;;6.00;5.25;;;;;6.11;70.59;101996.66;5078493;28;45463;-59
2023/01/27 03:53:39;;;;;;;;;4.25;2.00;;;;;6.10;70.38;101993.16;5078771;28;45428;-60
2023/01/27 03:56:05;;;;;;;;;3.00;1.25;;;;;6.09;70.45;101996.75;5078542;28;45400;-51
2023/01/27 03:58:36;;;;;;;;;2.00;1.00;;;;;6.08;70.68;101995.06;5078412;28;45977;-57
2023/01/27 04:01:12;;;;;;;;;2.50;2.00;;;;;6.09;70.31;102009.97;5078670;28;45298;-60
2023/01/27 04:09:16;;;;;;;;;3.50;3.50;;;;;6.09;70.72;101996.75;5078116;28;45389;-63
2023/01/27 04:11:54;;;;;;;;;4.75;1.25;;;;;6.08;70.68;101997.72;5077985;28;45226;-63
2023/01/27 04:14:24;;;;;;;;;6.50;1.75;;;;;6.02;70.60;101992.75;5078323;28;45416;-53
2023/01/27 04:16:52;;;;;;;;;9.75;5.00;;;;;6.08;70.57;101996.84;5077726;28;45522;-63
2023/01/27 04:19:18;;;;;;;;;6.00;4.00;;;;;6.09;70.77;101996.75;5077926;28;46140;-50
2023/01/27 04:21:44;;;;;;;;;5.25;2.00;;;;;6.08;70.65;101995.06;5078060;28;45408;-46
2023/01/27 04:24:22;;;;;;;;;2.00;2.00;;;;;6.08;70.90;101995.06;5077427;28;45298;-60
2023/01/27 04:26:57;;;;;;;;;7.50;4.00;;;;;6.10;70.99;101993.16;5078204;28;45694;-44
2023/01/27 04:29:26;;;;;;;;;3.00;1.75;;;;;6.08;70.66;101983.66;5077943;28;45777;-64
2023/01/27 04:31:52;;;;;;;;;3.50;2.50;;;;;6.10;71.13;101979.97;5078040;28;45369;-61
2023/01/27 04:34:17;;;;;;;;;1.00;1.00;;;;;6.12;70.82;101985.19;5077994;28;45562;-61
2023/01/27 04:36:43;;;;;;;;;4.25;4.00;;;;;6.12;70.61;101988.66;5077122;28;45618;-64
2023/01/27 04:39:09;;;;;;;;;4.00;1.50;;;;;6.09;70.64;101978.25;5059580;28;48131;-58
2023/01/27 04:41:35;;;;;;;;;3.50;2.50;;;;;6.11;70.84;101976.41;5077770;28;45439;-63
2023/01/27 04:44:01;;;;;;;;;2.00;1.00;;;;;6.12;70.70;101982.53;5078102;28;45321;-43
2023/01/27 04:46:26;;;;;;;;;2.50;1.50;;;;;6.12;70.74;101980.75;5078187;28;45445;-61
2023/01/27 04:48:52;;;;;;;;;2.00;2.00;;;;;6.12;71.22;101975.47;5077147;28;52915;-49
2023/01/27 04:51:18;;;;;;;;;6.50;4.00;;;;;6.12;70.87;101975.47;5077821;28;45391;-60
2023/01/27 04:53:43;;;;;;;;;5.50;2.00;;;;;6.13;70.99;101974.50;5077781;28;45431;-63
2023/01/27 04:56:29;;;;;;;;;7.00;3.00;;;;;6.11;71.04;101976.41;5077673;28;45329;-63
2023/01/27 04:58:58;;;;;;;;;2.00;2.00;;;;;6.12;70.87;101983.38;5059297;28;46285;-56
2023/01/27 05:01:24;;;;;;;;;5.00;1.50;;;;;6.09;70.76;101975.63;5077525;28;45540;-62
2023/01/27 05:03:49;;;;;;;;;4.50;1.00;;;;;6.14;70.51;101972.72;5077455;28;45342;-58
2023/01/27 05:06:15;;;;;;;;;3.25;1.00;;;;;6.03;70.93;101951.38;5077961;28;45804;-63
2023/01/27 05:08:40;;;;;;;;;9.50;7.25;;;;;6.13;71.21;101966.59;5077380;28;46665;-57
2023/01/27 05:11:06;;;;;;;;;1.00;1.00;;;;;6.09;70.37;101956.28;5077535;28;45451;-59
2023/01/27 05:13:31;;;;;;;;;2.00;2.00;;;;;6.13;70.37;101974.50;5076849;28;45419;-55
2023/01/27 05:16:17;;;;;;;;;4.75;1.50;;;;;6.14;70.20;101972.72;5076785;28;45432;-58
2023/01/27 05:18:44;;;;;;;;;0.50;0.25;;;;;6.13;70.76;101961.31;5077283;28;46139;-58
2023/01/27 05:21:16;;;;;;;;;8.00;1.75;;;;;6.12;70.29;101962.25;5058911;28;45390;-63
2023/01/27 05:23:42;;;;;;;;;1.50;1.50;;;;;6.16;70.20;101965.56;5077164;28;45376;-59
2023/01/27 05:26:26;;;;;;;;;4.00;1.50;;;;;6.15;69.90;101967.38;5077276;28;45505;-63
2023/01/27 05:28:54;;;;;;;;;4.25;2.00;;;;;6.13;69.95;101968.38;5077050;28;47433;-56
2023/01/27 05:31:23;;;;;;;;;1.75;1.75;;;;;6.15;70.07;101974.41;5076889;28;45399;-61
2023/01/27 05:33:51;;;;;;;;;2.00;2.00;;;;;6.15;69.59;101975.28;5077199;28;45611;-60
2023/01/27 05:36:19;;;;;;;;;3.75;1.75;;;;;6.15;69.38;101970.00;5075597;28;45472;-49
2023/01/27 05:38:45;;;;;;;;;8.25;4.00;;;;;6.15;69.47;101969.13;5076305;28;45684;-63
2023/01/27 05:41:12;;;;;;;;;15.75;8.00;;;;;6.16;69.73;101978.78;5076583;28;45540;-46
2023/01/27 05:43:39;;;;;;;;;11.25;4.50;;;;;6.16;69.88;101971.69;5076840;28;45431;-63
2023/01/27 05:46:11;;;;;;;;;5.00;3.50;;;;;6.14;69.75;101975.34;5077003;28;45472;-63
2023/01/27 05:48:39;;;;;;;;;4.00;4.00;;;;;6.15;69.56;101972.66;5075614;28;45418;-52
2023/01/27 05:51:06;;;;;;;;;2.00;2.00;;;;;6.16;70.16;101973.50;5076628;28;45412;-61
2023/01/27 05:53:32;;;;;;;;;2.00;2.00;;;;;6.13;69.77;101969.22;5076788;28;45364;-61
2023/01/27 05:55:58;;;;;;;;;5.00;1.75;;;;;6.11;69.45;101964.97;5076745;28;45214;-54
2023/01/27 05:58:24;;;;;;;;;5.00;2.00;;;;;6.13;69.59;101974.50;5076348;28;46518;-44
2023/01/27 06:00:49;;;;;;;;;4.75;1.75;;;;;6.11;69.83;101968.47;5076515;28;45341;-61
2023/01/27 06:03:15;;;;;;;;;2.00;2.00;;;;;6.03;70.00;101946.94;5076589;28;45339;-49
2023/01/27 06:05:55;;;;;;;;;5.00;4.00;;;;;6.13;69.66;101971.88;5076777;28;45247;-62
2023/01/27 06:08:25;;;;;;;;;2.25;1.75;;;;;6.14;69.76;101970.06;5075441;28;46104;-57
2023/01/27 06:10:50;;;;;;;;;1.75;1.00;;;;;6.11;70.11;101967.59;5076094;28;45199;-62
2023/01/27 06:13:16;;;;;;;;;5.00;2.00;;;;;6.14;69.60;101975.34;5076333;28;45172;-53
2023/01/27 06:15:43;;;;;;;;;4.00;2.50;;;;;6.13;69.56;101974.50;5076645;28;45392;-60
2023/01/27 06:18:08;;;;;;;;;5.00;1.50;;;;;6.13;69.66;101982.44;5076306;28;46282;-58
2023/01/27 06:20:33;;;;;;;;;5.00;4.50;;;;;6.14;69.53;101978.84;5076232;28;45376;-54
2023/01/27 06:23:00;;;;;;;;;3.50;1.00;;;;;6.16;69.35;101982.28;5076479;28;45431;-62
2023/01/27 06:25:26;;;;;;;;;4.75;3.50;;;;;6.16;69.48;101986.72;5076312;28;45467;-57
2023/01/27 06:27:55;;;;;;;;;3.50;2.00;;;;;6.15;69.35;101980.56;5075699;28;47082;-58
2023/01/27 06:30:20;;;;;;;;;8.75;4.25;;;;;6.17;69.63;101983.97;5076048;28;45434;-55
2023/01/27 06:32:45;;;;;;;;;7.00;3.00;;;;;6.17;69.44;101988.41;5076195;28;45267;-64
2023/01/27 06:35:11;;;;;;;;;6.00;1.75;;;;;6.20;69.51;101991.72;5076607;28;45380;-58
2023/01/27 06:37:36;;;;;;;;;2.50;1.00;;;;;6.16;69.61;101984.91;5075684;28;46102;-60
2023/01/27 06:40:03;;;;;;;;;4.25;2.00;;;;;5.89;69.29;101960.03;5076041;28;45471;-64
2023/01/27 06:42:28;;;;;;;;;4.75;2.00;;;;;6.20;69.04;101983.78;5076073;28;45645;-62
2023/01/27 06:44:54;;;;;;;;;4.75;2.00;;;;;6.17;69.05;101985.75;5076108;28;45349;-45
2023/01/27 06:47:20;;;;;;;;;3.75;1.00;;;;;6.13;69.36;101971.88;5075406;28;46329;-58
2023/01/27 06:49:45;;;;;;;;;4.50;4.00;;;;;6.21;69.06;101982.84;5075827;28;45443;-60
2023/01/27 06:52:10;;;;;;;;;5.25;3.50;;;;;6.22;68.98;101981.91;5076168;28;45407;-62
2023/01/27 06:54:36;;;;;;;;;5.00;5.00;;;;;6.22;69.05;101984.53;5076064;28;45454;-53
2023/01/27 06:57:01;;;;;;;;;1.75;1.00;;;;;6.23;69.21;101986.25;5075658;28;46048;-54
2023/01/27 06:59:26;;;;;;;;;7.00;2.00;;;;;6.23;69.41;101988.88;5075738;28;45417;-57
2023/01/27 07:01:52;;;;;;;;;7.00;6.00;;;;;6.24;69.28;101985.31;5075329;28;45370;-62
2023/01/27 07:04:17;;;;;;;;;4.00;2.00;;;;;6.24;68.87;101985.31;5075675;28;45403;-54
2023/01/27 07:06:42;;;;;;;;;8.25;3.50;;;;;6.23;68.45;101986.25;5075711;28;46052;-56
2023/01/27 07:09:08;;;;;;;;;5.50;5.00;;;;;6.24;68.83;101987.13;5075349;28;45383;-59
2023/01/27 07:11:33;;;;;;;;;8.25;4.00;;;;;6.25;68.85;101992.31;5075353;28;49401;-48
2023/01/27 07:13:58;;;;;;;;;6.25;1.50;;;;;6.23;68.77;101988.88;5075986;28;45419;-54
2023/01/27 07:16:24;;;;;;;;;2.00;2.00;;;;;6.25;69.23;101996.75;5075411;28;45652;-59
2023/01/27 07:18:49;;;;;;;;;5.50;2.00;;;;;6.26;68.20;102001.09;5075624;28;45284;-45
2023/01/27 07:21:14;;;;;;;;;7.00;1.75;;;;;6.26;69.01;101998.44;5075040;28;48739;-62
2023/01/27 07:23:40;;;;;;;;;4.00;2.00;;;;;6.25;68.75;102002.88;5076071;28;45321;-50
2023/01/27 07:26:05;;;;;;;;;5.25;4.00;;;;;6.24;69.16;102017.03;5075738;28;46129;-55
2023/01/27 07:28:30;;;;;;;;;11.50;5.50;;;;;6.25;68.50;102013.44;5075318;28;45452;-63
2023/01/27 07:31:00;;;;;;;;;8.00;5.00;;;;;6.25;68.77;102013.44;5075574;28;45289;-55
2023/01/27 07:33:25;;;;;;;;;4.75;4.75;;;;;6.27;68.45;102016.00;5073084;28;45408;-61
2023/01/27 07:35:50;;;;;;;;;7.25;4.00;;;;;6.27;68.74;102025.72;5072517;28;46625;-42
2023/01/27 07:38:16;;;;;;;;;7.50;7.50;;;;;6.27;68.26;102023.91;5074707;28;45329;-54
2023/01/27 07:40:41;;;;;;;;;8.50;5.75;;;;;6.28;69.07;102020.34;5075013;28;45341;-44
2023/01/27 07:43:07;;;;;;;;;10.50;5.00;;;;;6.29;68.82;102021.22;5075214;28;45861;-48
2023/01/27 07:45:32;;;;;;;;;9.00;2.00;;;;;6.27;68.48;102023.06;5074829;28;46341;-45
2023/01/27 07:48:06;;;;;;;;;6.00;5.00;;;;;6.27;69.05;102031.84;5074919;28;45326;-50
2023/01/27 07:50:32;;;;;;;;;8.50;5.50;;;;;6.28;68.94;102028.28;5075237;28;45354;-44
2023/01/27 07:53:03;;;;;;;;;7.75;4.00;;;;;6.30;68.88;102030.84;5075079;28;45207;-56
2023/01/27 07:55:29;;;;;;;;;6.75;6.25;;;;;6.22;68.40;102018.91;5074813;28;45266;-56
2023/01/27 07:57:56;;;;;;;;;7.50;4.50;;;;;6.29;68.50;102029.97;5074853;28;45349;-47
2023/01/27 08:00:22;;;;;;;;;5.50;4.25;;;;;6.18;68.43;102020.00;5078116;28;45382;-56
2023/01/27 08:02:51;;;;;;;;;9.50;3.50;;;;;6.32;68.18;102042.16;5078697;28;45475;-51
2023/01/27 08:05:17;;;;;;;;;8.75;2.50;;;;;6.31;68.35;102037.81;5074064;28;45531;-50
2023/01/27 08:07:42;;;;;;;;;4.50;4.50;;;;;6.31;68.59;102043.09;5058657;28;45414;-45
2023/01/27 08:10:09;;;;;;;;;4.50;4.50;;;;;6.29;68.76;102040.56;5078286;28;45431;-50
2023/01/27 08:12:34;;;;;;;;;5.00;5.00;;;;;6.34;68.94;102042.94;5078348;28;45409;-43
2023/01/27 08:14:59;;;;;;;;;9.00;5.50;;;;;6.34;69.30;102050.88;5077991;28;46372;-46
2023/01/27 08:17:25;;;;;;;;;5.00;4.50;;;;;6.35;69.05;102052.56;5077608;28;45371;-47
2023/01/27 08:19:51;;;;;;;;;8.50;6.00;;;;;6.37;68.99;102059.47;5077870;28;45352;-50
2023/01/27 08:22:20;;;;;;;;;7.25;5.50;;;;;6.36;69.25;102059.53;5078188;28;45396;-55
2023/01/27 08:24:46;;;;;;;;;8.00;5.75;;;;;6.35;69.02;102055.19;5077782;28;45482;-58
2023/01/27 08:27:11;;;;;;;;;6.25;4.25;;;;;6.37;69.09;102059.47;5077420;28;45501;-52
2023/01/27 08:29:36;;;;;;;;;5.25;3.50;;;;;6.36;69.10;102055.13;5077898;28;45457;-47
2023/01/27 08:32:02;;;;;;;;;5.00;5.00;;;;;6.38;68.87;102066.44;5077643;28;45368;-57
2023/01/27 08:34:27;;;;;;;;;6.25;4.00;;;;;6.40;68.56;102063.72;5077897;28;45839;-56
2023/01/27 08:36:52;;;;;;;;;8.75;5.75;;;;;6.38;69.10;102060.31;5077197;28;45183;-45
2023/01/27 08:39:18;;;;;;;;;8.75;2.50;;;;;6.41;68.38;102070.72;5077773;28;45369;-61
2023/01/27 08:41:43;;;;;;;;;9.00;5.00;;;;;6.42;68.80;102069.78;5076504;28;45536;-48
2023/01/27 08:44:09;;;;;;;;;14.25;7.50;;;;;6.39;69.00;102065.50;5077108;28;46083;-56
2023/01/27 08:46:34;;;;;;;;;7.25;7.00;;;;;6.37;68.92;102077.97;5077828;28;45579;-57
2023/01/27 08:48:59;;;;;;;;;7.50;5.50;;;;;6.36;68.50;102076.28;5077476;28;45496;-58
2023/01/27 08:51:25;;;;;;;;;5.75;5.00;;;;;6.35;68.81;102069.25;5077751;28;45405;-44
2023/01/27 08:53:50;;;;;;;;;8.50;6.75;;;;;6.33;68.54;102070.31;5076936;28;45922;-59
2023/01/27 08:56:15;;;;;;;;;8.50;5.50;;;;;6.38;69.00;102079.66;5077432;28;45763;-58
2023/01/27 08:58:41;;;;;;;;;9.25;6.00;;;;;6.37;68.83;102074.47;5077237;28;45672;-59
2023/01/27 09:01:07;;;;;;;;;9.75;8.50;;;;;6.36;68.76;102076.28;5077747;28;45503;-62
2023/01/27 09:03:33;;;;;;;;;5.00;5.00;;;;;6.37;68.59;102079.78;5077241;28;45822;-53
2023/01/27 09:05:59;;;;;;;;;8.75;8.75;;;;;6.36;68.19;102085.97;5076995;28;45337;-55
2023/01/27 09:08:25;;;;;;;;;16.00;7.75;;;;;6.21;67.63;102067.41;5077244;28;45254;-49
2023/01/27 09:10:51;;;;;;;;;6.25;5.00;;;;;6.36;67.59;102083.31;5077096;28;45464;-48
2023/01/27 09:13:17;;;;;;;;;8.50;7.00;;;;;6.36;67.32;102078.91;5076852;28;45353;-52
2023/01/27 09:15:43;;;;;;;;;17.50;8.00;;;;;6.36;67.37;102084.22;5058990;28;45277;-54
2023/01/27 09:18:09;;;;;;;;;7.00;5.00;;;;;6.36;66.79;102089.50;5074474;28;45540;-46
2023/01/27 09:20:36;;;;;;;;;5.50;4.00;;;;;6.32;67.45;102080.03;5077213;28;45565;-57
2023/01/27 09:23:02;;;;;;;;;7.50;6.00;;;;;6.36;66.56;102099.19;5076879;28;47007;-50
2023/01/27 09:25:28;;;;;;;;;10.25;5.00;;;;;6.33;67.02;102100.22;5076815;28;45862;-58
2023/01/27 09:27:54;;;;;;;;;12.25;6.50;;;;;6.30;65.82;102100.38;5076991;28;45439;-57
2023/01/27 09:30:21;;;;;;;;;13.50;7.75;;;;;6.29;66.24;102100.47;5077192;28;45337;-45
2023/01/27 09:32:46;;;;;;;;;6.00;6.00;;;;;6.30;66.65;102099.53;5076600;28;46219;-52
2023/01/27 09:35:11;;;;;;;;;8.75;8.00;;;;;6.27;66.10;102105.00;5076511;28;45283;-59
2023/01/27 09:37:49;;;;;;;;;9.25;6.00;;;;;6.25;65.78;102102.44;5075155;28;46012;-43
2023/01/27 09:40:22;;;;;;;;;8.25;6.50;;;;;6.23;65.92;102107.78;5073598;28;45457;-55
2023/01/27 09:43:14;;;;;;;;;10.00;4.25;;;;;6.22;66.16;102110.53;5072989;28;46047;-57
2023/01/27 09:45:53;;;;;;;;;10.00;6.50;;;;;6.20;66.22;102121.19;5068874;28;45516;-55
2023/01/27 09:48:53;;;;;;;;;11.00;7.00;;;;;6.21;65.81;102119.41;5072603;28;45461;-57
2023/01/27 09:51:40;;;;;;;;;10.50;7.00;;;;;6.16;65.61;102119.66;4971478;28;45705;-52
2023/01/27 09:54:10;;;;;;;;;5.25;4.25;;;;;6.17;66.10;102109.94;4971259;28;46113;-56
2023/01/27 09:56:53;;;;;;;;;5.75;5.75;;;;;6.14;65.74;102112.75;4971456;28;45818;-45
2023/01/27 09:59:43;;;;;;;;;12.00;6.00;;;;;6.15;65.19;102106.50;4971212;28;45293;-55
2023/01/27 10:02:36;;;;;;;;;6.50;6.50;;;;;6.15;65.18;102117.09;4971373;28;45495;-52
2023/01/27 10:05:08;;;;;;;;;8.00;7.50;;;;;6.18;65.30;102117.78;4968830;28;46344;-58
2023/01/27 10:07:33;;;;;;;;;7.75;5.00;;;;;6.19;65.04;102106.28;4970991;28;45530;-58
2023/01/27 10:10:23;;;;;;;;;9.50;7.75;;;;;6.23;64.93;102113.06;4971317;28;45725;-46
2023/01/27 10:13:02;;;;;;;;;8.50;6.00;;;;;6.28;65.05;102104.03;4954700;28;45515;-57
2023/01/27 10:15:40;;;;;;;;;6.00;6.00;;;;;6.32;64.43;102111.75;4970934;28;46786;-51
2023/01/27 10:18:32;;;;;;;;;9.50;7.25;;;;;6.38;65.04;102100.81;4970497;28;45607;-56
2023/01/27 10:21:10;;;;;;;;;5.25;4.00;;;;;6.46;64.62;102108.31;4970226;28;45394;-57
2023/01/27 10:23:44;;;;;;;;;5.50;4.00;;;;;6.53;64.88;102112.31;4970761;28;46058;-50
2023/01/27 10:26:35;;;;;;;;;11.75;7.00;;;;;6.61;63.30;102110.06;4970797;28;46211;-56
2023/01/27 10:29:12;;;;;;;;;12.25;9.25;;;;;6.66;63.95;102118.63;5071266;28;45498;-58
2023/01/27 10:32:08;;;;;;;;;15.25;9.75;;;;;6.44;63.65;102068.72;5072440;28;46243;-58
2023/01/27 10:34:36;;;;;;;;;13.25;5.25;;;;;6.74;64.31;102111.09;5043310;28;45448;-52
2023/01/27 10:37:18;;;;;;;;;11.00;6.50;;;;;6.77;63.06;102120.63;5072545;28;47259;-58
2023/01/27 10:40:13;;;;;;;;;7.00;5.75;;;;;6.83;63.54;102122.09;5072637;28;45443;-56
2023/01/27 10:42:57;;;;;;;;;6.50;6.00;;;;;6.82;63.43;102123.84;5041037;28;45780;-57
2023/01/27 10:45:23;;;;;;;;;10.25;7.75;;;;;6.89;63.20;102125.22;5072359;28;45795;-57
2023/01/27 10:48:17;;;;;;;;;12.50;7.00;;;;;6.81;63.03;102126.59;5072294;28;46119;-58
2023/01/27 10:50:53;;;;;;;;;8.50;6.00;;;;;6.70;62.63;102132.50;5072846;28;45369;-59
2023/01/27 10:53:28;;;;;;;;;18.25;7.75;;;;;6.63;63.66;102123.22;5072265;28;45453;-57
2023/01/27 10:56:14;;;;;;;;;8.75;5.50;;;;;6.56;63.74;102130.63;5072660;28;45775;-53
2023/01/27 10:59:00;;;;;;;;;9.25;8.00;;;;;6.56;64.05;102130.63;5072034;28;45501;-44
2023/01/27 11:01:40;;;;;;;;;13.75;5.50;;;;;6.60;64.03;102110.16;5072129;28;45475;-47
2023/01/27 11:04:31;;;;;;;;;9.75;8.50;;;;;6.66;63.89;102112.47;5072812;28;45412;-43
2023/01/27 11:06:59;;;;;;;;;12.00;6.75;;;;;6.74;63.01;102121.69;5072324;28;45644;-57
2023/01/27 11:09:38;;;;;;;;;10.25;8.75;;;;;6.80;63.51;102123.09;5072360;28;47253;-57
2023/01/27 11:12:11;;;;;;;;;14.50;8.50;;;;;6.82;62.94;102121.22;5071302;28;45627;-51
2023/01/27 11:14:55;;;;;;;;;6.50;6.50;;;;;6.83;63.21;102115.00;5072347;28;45349;-55
2023/01/27 11:17:37;;;;;;;;;10.25;5.75;;;;;6.84;63.22;102116.69;5072128;28;45468;-58
2023/01/27 11:20:26;;;;;;;;;14.50;10.25;;;;;6.86;62.92;102116.59;5072156;28;46097;-56
2023/01/27 11:23:15;;;;;;;;;8.75;5.75;;;;;6.72;63.04;102097.09;5072262;28;46492;-54
2023/01/27 11:26:11;;;;;;;;;14.25;12.50;;;;;6.84;63.18;102115.84;5071984;28;45646;-56
2023/01/27 11:28:59;;;;;;;;;13.75;7.75;;;;;6.71;63.15;102081.31;5072307;28;45511;-56
2023/01/27 11:31:55;;;;;;;;;8.75;8.00;;;;;6.80;62.79;102093.16;5071757;28;45409;-55
2023/01/27 11:34:50;;;;;;;;;10.00;9.00;;;;;6.81;62.95;102102.78;5075458;28;45421;-56
2023/01/27 11:37:20;;;;;;;;;8.75;8.75;;;;;6.81;63.62;102102.78;5078537;28;45237;-48
2023/01/27 11:39:46;;;;;;;;;13.50;9.50;;;;;6.81;63.62;102086.91;5078812;28;45342;-57
2023/01/27 11:42:13;;;;;;;;;15.25;9.50;;;;;6.79;63.02;102092.31;5078527;28;47455;-59
2023/01/27 11:44:39;;;;;;;;;10.50;9.25;;;;;6.79;62.38;102087.03;5078553;28;45383;-51
2023/01/27 11:47:12;;;;;;;;;9.00;8.25;;;;;6.79;63.40;102083.53;5078862;28;45417;-59
2023/01/27 11:49:42;;;;;;;;;11.00;9.00;;;;;6.83;63.08;102091.19;5077684;28;45455;-58
2023/01/27 11:52:17;;;;;;;;;13.50;10.50;;;;;6.84;62.94;102087.59;5078176;28;45362;-58
2023/01/27 11:55:23;;;;;;;;;13.50;9.00;;;;;6.85;62.90;102088.44;5078796;28;45333;-58
2023/01/27 11:58:01;;;;;;;;;11.50;9.00;;;;;6.85;62.28;102091.09;5078635;28;45368;-60
2023/01/27 12:00:46;;;;;;;;;11.50;10.50;;;;;6.82;62.60;102081.53;5078876;28;45507;-60
2023/01/27 12:03:25;;;;;;;;;10.00;8.50;;;;;6.81;63.05;102079.84;5078345;28;45917;-58
2023/01/27 12:05:55;;;;;;;;;16.00;11.00;;;;;6.82;63.99;102092.13;5078381;28;45218;-55
2023/01/27 12:08:43;;;;;;;;;14.00;11.25;;;;;6.81;63.47;102087.78;5078587;28;45435;-54
2023/01/27 12:11:23;;;;;;;;;11.50;9.25;;;;;6.79;62.87;102088.81;5078644;28;45383;-44